Time;durP1;ratioP1;P1;durP2;ratioP2;P2;SDS_P1;SDS_P2;PMS_P1;PMS_P2;Temp;Humidity;BMP_temperature;BMP_pressure;BME280_temperature;BME280_humidity;BME280_pressure;Samples;Min_cycle;Max_cycle;Signal;HPM_P1;HPM_P2
2021/06/10 00:01:01;;;;;;;;;;;;;;;23.37;77.33;99529.44;5035333;28;19924;-81
2021/06/10 00:03:26;;;;;;;;;;;;;;;23.86;74.41;99530.09;5034543;28;19935;-81
2021/06/10 00:05:52;;;;;;;;;;;;;;;23.29;78.29;99526.56;5033901;28;19972;-81
2021/06/10 00:08:17;;;;;;;;;;;;;;;23.50;78.72;99529.34;5035192;28;21245;-82
2021/06/10 00:10:43;;;;;;;;;;;;;;;23.61;79.30;99525.88;5033309;28;19984;-82
2021/06/10 00:13:09;;;;;;;;;;;;;;;23.68;77.29;99527.91;5016885;28;19921;-81
2021/06/10 00:15:34;;;;;;;;;;;;;;;23.67;77.80;99515.69;5031286;28;20550;-81
2021/06/10 00:18:00;;;;;;;;;;;;;;;23.61;78.40;99524.09;5033821;28;20381;-81
2021/06/10 00:20:26;;;;;;;;;;;;;;;23.41;75.41;99524.78;5017028;28;20010;-81
2021/06/10 00:22:54;;;;;;;;;;;;;;;23.58;76.93;99521.69;5034095;28;19967;-81
2021/06/10 00:25:19;;;;;;;;;;;;;;;23.45;78.00;99527.06;5032203;28;19932;-81
2021/06/10 00:27:45;;;;;;;;;;;;;;;23.58;77.89;99521.69;5018350;28;20895;-81
2021/06/10 00:30:15;;;;;;;;;;;;;;;23.36;77.34;99528.59;5033181;28;19932;-81
2021/06/10 00:32:40;;;;;;;;;;;;;;;23.27;75.35;99528.47;5017565;28;19982;-81
2021/06/10 00:35:05;;;;;;;;;;;;;;;23.06;80.21;99525.66;5034492;28;20761;-81
2021/06/10 00:37:31;;;;;;;;;;;;;;;23.00;77.49;99526.16;5033295;28;20624;-81
2021/06/10 00:39:56;;;;;;;;;;;;;;;21.74;88.78;99525.56;5032549;28;19936;-82
2021/06/10 00:42:21;;;;;;;;;;;;;;;21.79;91.02;99527.84;5033909;28;19921;-81
2021/06/10 00:44:47;;;;;;;;;;;;;;;21.59;92.22;99524.81;5032903;28;19931;-81
2021/06/10 00:47:13;;;;;;;;;;;;;;;21.78;90.65;99534.03;5032046;28;20700;-81
2021/06/10 00:49:38;;;;;;;;;;;;;;;21.87;90.78;99536.88;5015634;28;19924;-81
2021/06/10 00:52:04;;;;;;;;;;;;;;;22.02;86.77;99529.69;5033680;28;19924;-80
2021/06/10 00:54:29;;;;;;;;;;;;;;;22.49;86.40;99528.09;5032053;28;19931;-81
2021/06/10 00:56:55;;;;;;;;;;;;;;;22.68;83.93;99522.31;5012590;28;19928;-81
2021/06/10 00:59:20;;;;;;;;;;;;;;;22.95;83.80;99531.72;5033810;28;19921;-81
2021/06/10 01:01:45;;;;;;;;;;;;;;;23.05;81.53;99524.00;5034653;28;19986;-81
2021/06/10 01:04:11;;;;;;;;;;;;;;;23.12;81.43;99525.22;5032284;28;20305;-81
2021/06/10 01:06:57;;;;;;;;;;;;;;;22.82;81.25;99526.53;5016839;28;20358;-81
2021/06/10 01:09:25;;;;;;;;;;;;;;;22.83;83.43;99524.75;5031801;28;19932;-81
2021/06/10 01:11:52;;;;;;;;;;;;;;;22.63;81.17;99523.63;5033192;28;19974;-81
2021/06/10 01:14:26;;;;;;;;;;;;;;;22.72;77.15;99522.94;5035619;28;19924;-82
2021/06/10 01:16:52;;;;;;;;;;;;;;;22.52;78.71;99525.22;5033691;28;19986;-81
2021/06/10 01:19:29;;;;;;;;;;;;;;;22.80;83.40;99532.84;5017107;28;19925;-81
2021/06/10 01:21:56;;;;;;;;;;;;;;;22.80;80.66;99535.47;5018583;28;19920;-82
2021/06/10 01:24:40;;;;;;;;;;;;;;;22.77;82.35;99531.28;5017297;28;19927;-81
2021/06/10 01:27:25;;;;;;;;;;;;;;;22.79;81.89;99524.16;5051344;28;19924;-81
2021/06/10 01:29:52;;;;;;;;;;;;;;;22.73;82.94;99525.44;5054377;28;19931;-81
2021/06/10 01:32:21;;;;;;;;;;;;;;;22.81;82.98;99521.38;5036905;28;20117;-82
2021/06/10 01:34:46;;;;;;;;;;;;;;;22.69;82.78;99523.13;5036570;28;20399;-81
2021/06/10 01:37:11;;;;;;;;;;;;;;;22.70;83.93;99517.78;5035541;28;20019;-82
2021/06/10 01:39:37;;;;;;;;;;;;;;;22.71;82.93;99521.25;5019602;28;20061;-81
2021/06/10 01:42:02;;;;;;;;;;;;;;;22.50;82.77;99519.25;5036427;28;20388;-81
2021/06/10 01:44:28;;;;;;;;;;;;;;;22.53;83.71;99508.53;5035252;28;19932;-81
2021/06/10 01:46:53;;;;;;;;;;;;;;;22.36;84.79;99513.34;5035114;28;19950;-82
2021/06/10 01:49:19;;;;;;;;;;;;;;;22.42;82.26;99505.88;5018201;28;19970;-81
2021/06/10 01:51:45;;;;;;;;;;;;;;;22.52;82.77;99503.41;5017230;28;19986;-81
2021/06/10 01:54:10;;;;;;;;;;;;;;;22.21;82.48;99503.00;5028677;28;19940;-82
2021/06/10 01:56:36;;;;;;;;;;;;;;;21.88;86.69;99506.22;5019064;28;20323;-81
2021/06/10 01:59:01;;;;;;;;;;;;;;;22.05;85.62;99507.63;5018120;28;19951;-81
2021/06/10 02:01:28;;;;;;;;;;;;;;;21.89;86.09;99502.63;5031527;28;19924;-82
2021/06/10 02:03:54;;;;;;;;;;;;;;;21.82;87.00;99504.03;5035308;28;19960;-81
2021/06/10 02:06:19;;;;;;;;;;;;;;;21.59;87.27;99501.22;5029985;28;19928;-81
2021/06/10 02:08:47;;;;;;;;;;;;;;;21.74;86.95;99499.34;5035478;28;19943;-81
2021/06/10 02:11:12;;;;;;;;;;;;;;;21.84;83.33;99496.91;5048492;28;20364;-81
2021/06/10 02:13:38;;;;;;;;;;;;;;;21.69;83.39;99491.78;5019419;28;19928;-81
2021/06/10 02:16:04;;;;;;;;;;;;;;;21.66;87.58;99497.22;5035102;28;19920;-81
2021/06/10 02:18:30;;;;;;;;;;;;;;;21.90;86.83;99484.19;5036370;28;19920;-81
2021/06/10 02:20:58;;;;;;;;;;;;;;;21.65;84.29;99485.09;5034482;28;19921;-81
2021/06/10 02:23:23;;;;;;;;;;;;;;;21.80;84.45;99487.56;5050582;28;19916;-81
2021/06/10 02:25:49;;;;;;;;;;;;;;;21.49;86.47;99485.31;5052100;28;19935;-81
2021/06/10 02:28:14;;;;;;;;;;;;;;;21.28;90.10;99487.63;5034164;28;20445;-81
2021/06/10 02:30:39;;;;;;;;;;;;;;;21.52;88.56;99494.75;5033899;28;19968;-81
2021/06/10 02:33:05;;;;;;;;;;;;;;;21.56;89.10;99496.22;5019476;28;20009;-81
2021/06/10 02:35:30;;;;;;;;;;;;;;;21.43;89.42;99492.75;5034313;28;19975;-82
2021/06/10 02:38:00;;;;;;;;;;;;;;;21.40;89.89;99487.72;5034817;28;19955;-81
2021/06/10 02:40:37;;;;;;;;;;;;;;;21.48;90.15;99486.28;5035622;28;19924;-81
2021/06/10 02:43:03;;;;;;;;;;;;;;;21.26;91.18;99489.50;5034938;28;19989;-81
2021/06/10 02:45:29;;;;;;;;;;;;;;;21.38;93.26;99492.22;5035062;28;20021;-81
2021/06/10 02:47:54;;;;;;;;;;;;;;;21.42;90.69;99493.72;5017447;28;20011;-81
2021/06/10 02:50:19;;;;;;;;;;;;;;;21.38;93.26;99497.47;5019466;28;19952;-81
2021/06/10 02:52:46;;;;;;;;;;;;;;;21.37;93.57;99488.75;5018963;28;19928;-81
2021/06/10 02:55:11;;;;;;;;;;;;;;;21.27;93.26;99485.09;5032087;28;19935;-81
2021/06/10 02:57:37;;;;;;;;;;;;;;;21.15;92.97;99484.16;5031899;28;20606;-81
2021/06/10 03:00:05;;;;;;;;;;;;;;;21.35;94.38;99487.16;5017269;28;19924;-81
2021/06/10 03:02:32;;;;;;;;;;;;;;;21.18;96.44;99478.69;5035663;28;19935;-81
2021/06/10 03:04:58;;;;;;;;;;;;;;;21.30;94.33;99483.09;5029906;28;20027;-81
2021/06/10 03:07:23;;;;;;;;;;;;;;;21.20;92.91;99487.28;5015446;28;20299;-80
2021/06/10 03:09:48;;;;;;;;;;;;;;;21.10;92.59;99479.22;5052285;28;20406;-81
2021/06/10 03:12:16;;;;;;;;;;;;;;;21.28;91.81;99487.63;5018594;28;20408;-81
2021/06/10 03:14:42;;;;;;;;;;;;;;;20.99;94.80;99488.75;5038434;28;19935;-81
2021/06/10 03:17:11;;;;;;;;;;;;;;;21.16;91.74;99487.59;5037936;28;19943;-81
2021/06/10 03:19:37;;;;;;;;;;;;;;;20.84;95.44;99487.97;5056127;28;20632;-81
2021/06/10 03:22:02;;;;;;;;;;;;;;;20.87;96.96;99487.81;5057004;28;19986;-81
2021/06/10 03:24:27;;;;;;;;;;;;;;;20.93;96.10;99483.91;5039135;28;19921;-81
2021/06/10 03:26:53;;;;;;;;;;;;;;;21.14;96.64;99490.31;5037668;28;19924;-81
2021/06/10 03:29:20;;;;;;;;;;;;;;;21.01;96.06;99494.72;5039366;28;20016;-81
2021/06/10 03:31:45;;;;;;;;;;;;;;;21.04;97.82;99484.88;5037276;28;19931;-81
2021/06/10 03:34:11;;;;;;;;;;;;;;;21.08;95.50;99488.97;5021426;28;19924;-83
2021/06/10 03:36:36;;;;;;;;;;;;;;;21.18;97.36;99481.31;5053624;28;19920;-82
2021/06/10 03:39:03;;;;;;;;;;;;;;;21.18;91.28;99481.31;5021806;28;20499;-81
2021/06/10 03:41:28;;;;;;;;;;;;;;;21.16;96.77;99482.34;5054965;28;19927;-82
2021/06/10 03:43:54;;;;;;;;;;;;;;;21.12;92.31;99478.25;5038243;28;19924;-82
2021/06/10 03:46:19;;;;;;;;;;;;;;;20.96;94.83;99484.56;5038508;28;19917;-82
2021/06/10 03:48:44;;;;;;;;;;;;;;;21.16;90.62;99475.34;5036889;28;19951;-83
2021/06/10 03:51:13;;;;;;;;;;;;;;;20.89;97.39;99481.50;5039025;28;20388;-81
2021/06/10 03:53:39;;;;;;;;;;;;;;;21.06;95.76;99476.91;5037430;28;19920;-82
2021/06/10 03:56:05;;;;;;;;;;;;;;;20.99;98.30;99483.50;5036559;28;19925;-81
2021/06/10 03:58:30;;;;;;;;;;;;;;;20.60;98.85;99478.22;5038132;28;19932;-80
2021/06/10 04:00:56;;;;;;;;;;;;;;;20.66;96.61;99480.44;5038448;28;19921;-81
2021/06/10 04:03:21;;;;;;;;;;;;;;;20.79;95.78;99480.44;5020615;28;19924;-81
2021/06/10 04:05:46;;;;;;;;;;;;;;;20.97;97.16;99475.75;5037212;28;19935;-81
2021/06/10 04:08:12;;;;;;;;;;;;;;;20.58;100.00;99476.63;5052553;28;20334;-81
2021/06/10 04:10:37;;;;;;;;;;;;;;;21.03;94.11;99477.97;5021033;28;20450;-80
2021/06/10 04:13:02;;;;;;;;;;;;;;;21.00;96.94;99483.38;5019892;28;19928;-81
2021/06/10 04:15:28;;;;;;;;;;;;;;;20.78;95.58;99480.56;5037069;28;19925;-80
2021/06/10 04:17:53;;;;;;;;;;;;;;;21.00;98.89;99477.31;5020635;28;19932;-80
2021/06/10 04:20:18;;;;;;;;;;;;;;;20.94;91.15;99478.59;5037479;28;20015;-81
2021/06/10 04:22:44;;;;;;;;;;;;;;;20.97;97.40;99474.91;5053745;28;20421;-81
2021/06/10 04:25:10;;;;;;;;;;;;;;;21.14;97.53;99474.59;5031000;28;20103;-81
2021/06/10 04:27:35;;;;;;;;;;;;;;;21.17;97.11;99473.56;5032282;28;19931;-81
2021/06/10 04:30:00;;;;;;;;;;;;;;;21.28;94.58;99474.50;5030262;28;19925;-81
2021/06/10 04:32:26;;;;;;;;;;;;;;;21.26;95.88;99473.78;5029231;28;19928;-82
2021/06/10 04:34:52;;;;;;;;;;;;;;;21.52;95.44;99481.63;5031547;28;19939;-82
2021/06/10 04:37:18;;;;;;;;;;;;;;;21.53;92.83;99475.47;5031282;28;20617;-82
2021/06/10 04:39:43;;;;;;;;;;;;;;;21.59;91.88;99475.03;5033314;28;20379;-81
2021/06/10 04:42:09;;;;;;;;;;;;;;;21.30;98.93;99477.88;5029758;28;20499;-82
2021/06/10 04:44:34;;;;;;;;;;;;;;;21.41;92.50;99473.69;5031117;28;19936;-81
2021/06/10 04:47:02;;;;;;;;;;;;;;;21.68;89.60;99477.00;5030715;28;19925;-82
2021/06/10 04:49:27;;;;;;;;;;;;;;;21.53;95.47;99483.34;5032015;28;19935;-81
2021/06/10 04:51:52;;;;;;;;;;;;;;;21.49;93.60;99490.56;5018944;28;19947;-86
2021/06/10 04:54:18;;;;;;;;;;;;;;;21.43;94.49;99490.13;5014515;28;20463;-86
2021/06/10 04:56:43;;;;;;;;;;;;;;;21.62;91.74;99490.56;5011416;28;20577;-81
2021/06/10 04:59:08;;;;;;;;;;;;;;;21.44;96.06;99497.03;5032284;28;19936;-86
2021/06/10 05:01:34;;;;;;;;;;;;;;;21.46;96.24;99485.53;5009749;28;19924;-81
2021/06/10 05:03:59;;;;;;;;;;;;;;;21.59;95.68;99496.00;5027737;28;19925;-81
2021/06/10 05:06:24;;;;;;;;;;;;;;;21.62;98.18;99500.19;5026008;28;19943;-81
2021/06/10 05:08:50;;;;;;;;;;;;;;;21.83;97.81;99495.22;5013260;28;19924;-80
2021/06/10 05:11:15;;;;;;;;;;;;;;;22.13;93.54;99495.66;5028121;28;19925;-81
2021/06/10 05:13:40;;;;;;;;;;;;;;;21.94;93.82;99500.56;5033297;28;19921;-81
2021/06/10 05:16:06;;;;;;;;;;;;;;;22.25;95.21;99485.25;5031810;28;20555;-81
2021/06/10 05:18:31;;;;;;;;;;;;;;;22.53;91.95;99498.03;5033483;28;20599;-81
2021/06/10 05:20:56;;;;;;;;;;;;;;;22.66;85.62;99487.44;5032918;28;19929;-81
2021/06/10 05:23:22;;;;;;;;;;;;;;;22.59;90.78;99488.03;5030765;28;20446;-81
2021/06/10 05:25:47;;;;;;;;;;;;;;;22.70;88.15;99490.69;5030080;28;20441;-81
2021/06/10 05:28:12;;;;;;;;;;;;;;;22.80;91.56;99483.78;5034169;28;19927;-81
2021/06/10 05:30:38;;;;;;;;;;;;;;;22.97;88.57;99486.00;5029952;28;20058;-81
2021/06/10 05:33:03;;;;;;;;;;;;;;;22.60;93.48;99493.16;5031148;28;19943;-81
2021/06/10 05:35:29;;;;;;;;;;;;;;;22.80;91.85;99494.28;5030673;28;19940;-81
2021/06/10 05:37:54;;;;;;;;;;;;;;;23.04;92.06;99490.81;5015957;28;19929;-82
2021/06/10 05:40:19;;;;;;;;;;;;;;;22.68;92.99;99500.47;5035010;28;20261;-81
2021/06/10 05:42:45;;;;;;;;;;;;;;;22.81;92.27;99492.50;5032802;28;20581;-83
2021/06/10 05:45:10;;;;;;;;;;;;;;;22.52;94.72;99491.09;5032672;28;19974;-82
2021/06/10 05:47:36;;;;;;;;;;;;;;;23.27;86.81;99495.16;5032262;28;19978;-86
2021/06/10 05:50:01;;;;;;;;;;;;;;;23.03;94.51;99484.72;5034503;28;19920;-81
2021/06/10 05:52:26;;;;;;;;;;;;;;;23.32;89.67;99490.38;5031838;28;19934;-86
2021/06/10 05:54:52;;;;;;;;;;;;;;;22.97;94.07;99496.50;5020272;28;19917;-85
2021/06/10 05:57:17;;;;;;;;;;;;;;;23.35;89.25;99500.63;5017471;28;19952;-89
2021/06/10 05:59:46;;;;;;;;;;;;;;;23.88;86.51;99496.59;5021555;28;19921;-89
2021/06/10 06:02:11;;;;;;;;;;;;;;;23.74;86.18;99503.81;5023736;28;19927;-88
2021/06/10 06:04:38;;;;;;;;;;;;;;;23.89;85.96;99498.28;5009505;28;21540;-81
2021/06/10 06:07:03;;;;;;;;;;;;;;;24.06;83.33;99510.91;5031458;28;19925;-81
2021/06/10 06:09:28;;;;;;;;;;;;;;;23.77;89.33;99505.34;5015442;28;20206;-81
2021/06/10 06:11:56;;;;;;;;;;;;;;;23.20;94.98;99512.34;5032960;28;20406;-81
2021/06/10 06:14:27;;;;;;;;;;;;;;;24.30;86.25;99508.09;5033435;28;19932;-82
2021/06/10 06:16:52;;;;;;;;;;;;;;;24.19;84.80;99516.03;5032652;28;19968;-81
2021/06/10 06:19:17;;;;;;;;;;;;;;;24.66;83.31;99518.44;5015657;28;20015;-82
2021/06/10 06:21:43;;;;;;;;;;;;;;;24.95;84.04;99508.09;5032288;28;20455;-81
2021/06/10 06:24:08;;;;;;;;;;;;;;;25.13;78.24;99508.34;5030919;28;20401;-81
2021/06/10 06:26:34;;;;;;;;;;;;;;;25.33;77.18;99512.78;5015024;28;20014;-81
2021/06/10 06:29:02;;;;;;;;;;;;;;;25.48;81.83;99515.06;5033356;28;19967;-82
2021/06/10 06:31:27;;;;;;;;;;;;;;;25.55;76.41;99510.97;5031664;28;19921;-83
2021/06/10 06:33:53;;;;;;;;;;;;;;;25.31;81.42;99517.34;5031711;28;19960;-80
2021/06/10 06:36:18;;;;;;;;;;;;;;;26.04;78.60;99517.25;5015087;28;20015;-80
2021/06/10 06:38:44;;;;;;;;;;;;;;;26.07;77.78;99527.56;5031815;28;19924;-80
2021/06/10 06:41:09;;;;;;;;;;;;;;;26.31;77.46;99523.69;5000475;28;19938;-80
2021/06/10 06:43:35;;;;;;;;;;;;;;;26.17;75.68;99528.41;5032660;28;19932;-80
2021/06/10 06:46:00;;;;;;;;;;;;;;;26.62;74.18;99532.38;5016215;28;19964;-80
2021/06/10 06:48:28;;;;;;;;;;;;;;;26.54;74.11;99532.19;5015779;28;19921;-82
2021/06/10 06:50:53;;;;;;;;;;;;;;;26.53;77.98;99539.28;5016795;28;19921;-81
2021/06/10 06:53:18;;;;;;;;;;;;;;;27.03;72.98;99541.81;5031370;28;19932;-82
2021/06/10 06:55:44;;;;;;;;;;;;;;;26.76;76.43;99541.69;5016772;28;19920;-80
2021/06/10 06:58:10;;;;;;;;;;;;;;;26.39;79.30;99542.31;5014156;28;19931;-79
2021/06/10 07:00:35;;;;;;;;;;;;;;;25.58;80.41;99542.34;5031740;28;20407;-79
2021/06/10 07:03:00;;;;;;;;;;;;;;;24.84;75.30;99538.00;5030253;28;19921;-80
2021/06/10 07:05:26;;;;;;;;;;;;;;;25.10;78.08;99548.16;5014526;28;19925;-80
2021/06/10 07:07:51;;;;;;;;;;;;;;;26.29;67.98;99542.31;5027813;28;20942;-80
2021/06/10 07:10:16;;;;;;;;;;;;;;;24.78;65.01;99538.50;5032442;28;20008;-80
2021/06/10 07:12:41;;;;;;;;;;;;;;;26.25;63.18;99528.56;5013949;28;19952;-80
2021/06/10 07:15:07;;;;;;;;;;;;;;;24.74;81.80;99540.53;5033139;28;19932;-80
2021/06/10 07:17:32;;;;;;;;;;;;;;;24.51;65.02;99541.59;5031510;28;20380;-80
2021/06/10 07:20:00;;;;;;;;;;;;;;;23.79;73.09;99546.34;5031826;28;20031;-80
2021/06/10 07:22:25;;;;;;;;;;;;;;;24.02;71.92;99548.97;5032218;28;19932;-80
2021/06/10 07:24:51;;;;;;;;;;;;;;;23.82;67.34;99552.34;5034109;28;19947;-80
2021/06/10 07:27:17;;;;;;;;;;;;;;;23.59;71.10;99554.91;5034774;28;20372;-79
2021/06/10 07:29:42;;;;;;;;;;;;;;;23.97;75.75;99556.38;5018172;28;19920;-80
2021/06/10 07:32:08;;;;;;;;;;;;;;;24.77;72.81;99547.34;5048464;28;19931;-80
2021/06/10 07:34:34;;;;;;;;;;;;;;;24.48;73.27;99550.56;5034308;28;19921;-80
2021/06/10 07:36:59;;;;;;;;;;;;;;;26.23;63.99;99546.34;5032051;28;19924;-80
2021/06/10 07:39:24;;;;;;;;;;;;;;;24.58;63.04;99559.38;5033055;28;19972;-80
2021/06/10 07:41:50;;;;;;;;;;;;;;;24.59;60.29;99566.34;5034766;28;20345;-79
2021/06/10 07:44:15;;;;;;;;;;;;;;;25.06;61.79;99563.38;5017654;28;20387;-81
2021/06/10 07:46:40;;;;;;;;;;;;;;;25.66;65.38;99566.28;5017834;28;20284;-81
2021/06/10 07:49:06;;;;;;;;;;;;;;;24.57;57.22;99568.25;5035287;28;20344;-81
2021/06/10 07:51:32;;;;;;;;;;;;;;;25.18;55.03;99564.13;5018563;28;19955;-80
2021/06/10 07:53:57;;;;;;;;;;;;;;;24.05;61.77;99572.41;5019384;28;19916;-80
2021/06/10 07:56:22;;;;;;;;;;;;;;;24.75;72.19;99570.34;5053100;28;19962;-81
2021/06/10 07:58:48;;;;;;;;;;;;;;;26.25;63.13;99577.88;5037179;28;20044;-80
2021/06/10 08:01:13;;;;;;;;;;;;;;;25.76;53.71;99572.41;5039674;28;19964;-81
2021/06/10 08:03:38;;;;;;;;;;;;;;;26.46;57.40;99570.69;5022206;28;19925;-81
2021/06/10 08:06:05;;;;;;;;;;;;;;;27.32;56.63;99572.66;5055650;28;19920;-80
2021/06/10 08:08:31;;;;;;;;;;;;;;;27.77;58.29;99566.69;5038634;28;20269;-81
2021/06/10 08:10:59;;;;;;;;;;;;;;;26.20;49.79;99575.63;5038173;28;19924;-81
2021/06/10 08:13:25;;;;;;;;;;;;;;;26.29;56.43;99580.09;5057566;28;19931;-80
2021/06/10 08:15:51;;;;;;;;;;;;;;;25.84;64.29;99574.38;5021740;28;19924;-81
2021/06/10 08:18:17;;;;;;;;;;;;;;;24.77;57.73;99571.03;5056830;28;20435;-81
2021/06/10 08:20:42;;;;;;;;;;;;;;;25.25;54.62;99575.91;5037914;28;19935;-81
2021/06/10 08:23:07;;;;;;;;;;;;;;;26.29;65.23;99580.09;5022447;28;19926;-80
2021/06/10 08:25:33;;;;;;;;;;;;;;;26.80;54.45;99575.63;5056387;28;19934;-81
2021/06/10 08:28:00;;;;;;;;;;;;;;;27.36;57.40;99574.06;5035149;28;19925;-80
2021/06/10 08:30:26;;;;;;;;;;;;;;;25.67;64.36;99575.84;5033133;28;20012;-81
2021/06/10 08:32:51;;;;;;;;;;;;;;;25.42;61.53;99577.94;5039303;28;19956;-80
2021/06/10 08:35:18;;;;;;;;;;;;;;;25.82;59.69;99571.06;5055674;28;19924;-81
2021/06/10 08:37:43;;;;;;;;;;;;;;;27.09;44.11;99572.13;5038558;28;20395;-80
2021/06/10 08:40:09;;;;;;;;;;;;;;;27.22;55.22;99572.69;5038937;28;20081;-81
2021/06/10 08:42:38;;;;;;;;;;;;;;;27.42;48.55;99578.78;5055633;28;20272;-81
2021/06/10 08:45:05;;;;;;;;;;;;;;;26.12;56.81;99575.50;5057262;28;19928;-81
2021/06/10 08:47:30;;;;;;;;;;;;;;;25.41;58.46;99575.44;5034795;28;19924;-80
2021/06/10 08:49:56;;;;;;;;;;;;;;;25.13;59.21;99574.25;5035748;28;20276;-80
2021/06/10 08:52:22;;;;;;;;;;;;;;;26.98;52.59;99580.19;5032751;28;19924;-80
2021/06/10 08:54:47;;;;;;;;;;;;;;;26.77;50.61;99580.34;5021780;28;19931;-80
2021/06/10 08:57:12;;;;;;;;;;;;;;;29.44;48.67;99581.28;5035325;28;19942;-81
2021/06/10 08:59:39;;;;;;;;;;;;;;;27.81;50.98;99569.88;5034877;28;20646;-81
2021/06/10 09:02:04;;;;;;;;;;;;;;;26.83;65.27;99577.97;5037982;28;20015;-81
2021/06/10 09:04:30;;;;;;;;;;;;;;;27.36;53.32;99575.88;5036541;28;20805;-81
2021/06/10 09:06:55;;;;;;;;;;;;;;;29.16;47.27;99570.81;5038084;28;20479;-80
2021/06/10 09:09:37;;;;;;;;;;;;;;;27.46;50.27;99569.59;5018850;28;19921;-80
2021/06/10 09:12:06;;;;;;;;;;;;;;;27.79;53.82;99577.97;5037520;28;21029;-80
2021/06/10 09:14:52;;;;;;;;;;;;;;;28.59;46.42;99580.91;5035077;28;20435;-81
2021/06/10 09:17:27;;;;;;;;;;;;;;;26.50;56.61;99581.81;5020533;28;19931;-84
2021/06/10 09:19:52;;;;;;;;;;;;;;;28.11;56.23;99580.22;5019781;28;20525;-84
2021/06/10 09:22:19;;;;;;;;;;;;;;;27.78;58.06;99584.25;5035815;28;19947;-83
2021/06/10 09:24:44;;;;;;;;;;;;;;;26.29;58.46;99590.66;5053945;28;20438;-82
2021/06/10 09:27:11;;;;;;;;;;;;;;;26.68;59.00;99585.47;5036744;28;19924;-83
2021/06/10 09:29:41;;;;;;;;;;;;;;;25.95;64.66;99578.75;5019496;28;20299;-82
2021/06/10 09:32:11;;;;;;;;;;;;;;;28.00;54.13;99574.28;5034142;28;20015;-82
2021/06/10 09:34:43;;;;;;;;;;;;;;;26.46;62.40;99575.16;5035384;28;19928;-82
2021/06/10 09:37:10;;;;;;;;;;;;;;;26.11;67.28;99565.88;5034731;28;19925;-82
2021/06/10 09:39:39;;;;;;;;;;;;;;;26.99;58.55;99572.13;5033144;28;19928;-82
2021/06/10 09:42:12;;;;;;;;;;;;;;;26.05;57.53;99571.72;5018180;28;19923;-82
2021/06/10 09:44:39;;;;;;;;;;;;;;;27.68;49.69;99568.38;5033713;28;20766;-82
2021/06/10 09:47:05;;;;;;;;;;;;;;;28.00;42.08;99571.63;5027727;28;19948;-82
2021/06/10 09:49:30;;;;;;;;;;;;;;;26.54;53.00;99572.66;5035527;28;20527;-82
2021/06/10 09:51:56;;;;;;;;;;;;;;;25.81;67.17;99575.47;5052855;28;20035;-82
2021/06/10 09:54:41;;;;;;;;;;;;;;;25.98;62.86;99571.44;5019226;28;19966;-82
2021/06/10 09:57:07;;;;;;;;;;;;;;;26.67;61.93;99573.25;5035385;28;19924;-82
2021/06/10 09:59:44;;;;;;;;;;;;;;;27.59;47.85;99569.25;5035324;28;19973;-82
2021/06/10 10:02:26;;;;;;;;;;;;;;;26.56;50.35;99570.75;5021248;28;19924;-82
2021/06/10 10:04:58;;;;;;;;;;;;;;;26.97;45.44;99579.38;5018582;28;20349;-82
2021/06/10 10:07:25;;;;;;;;;;;;;;;26.75;58.83;99574.38;5033154;28;19932;-82
2021/06/10 10:09:50;;;;;;;;;;;;;;;27.03;56.95;99570.06;5032765;28;20751;-82
2021/06/10 10:12:15;;;;;;;;;;;;;;;26.99;50.53;99576.59;5035343;28;19931;-82
2021/06/10 10:14:40;;;;;;;;;;;;;;;28.68;51.24;99566.75;5034194;28;19935;-81
2021/06/10 10:17:06;;;;;;;;;;;;;;;26.39;57.77;99576.66;5017964;28;19921;-82
2021/06/10 10:19:32;;;;;;;;;;;;;;;26.50;54.71;99574.75;5034504;28;19939;-82
2021/06/10 10:21:57;;;;;;;;;;;;;;;26.66;47.96;99582.16;5016626;28;19935;-82
2021/06/10 10:24:23;;;;;;;;;;;;;;;26.62;54.87;99575.47;5035716;28;19920;-82
2021/06/10 10:26:48;;;;;;;;;;;;;;;26.74;60.11;99570.06;5052572;28;19928;-82
2021/06/10 10:29:13;;;;;;;;;;;;;;;26.25;65.40;99578.72;5035380;28;20027;-82
2021/06/10 10:31:40;;;;;;;;;;;;;;;26.65;57.71;99569.91;5034902;28;20039;-82
2021/06/10 10:34:05;;;;;;;;;;;;;;;27.80;61.91;99569.03;5032769;28;19928;-82
2021/06/10 10:36:43;;;;;;;;;;;;;;;28.95;48.69;99572.97;5018613;28;19925;-82
2021/06/10 10:39:10;;;;;;;;;;;;;;;27.54;52.56;99572.34;5035174;28;19960;-82
2021/06/10 10:41:49;;;;;;;;;;;;;;;27.19;51.14;99574.78;5030351;28;19935;-81
2021/06/10 10:44:27;;;;;;;;;;;;;;;26.10;64.75;99580.06;5035405;28;20284;-82
2021/06/10 10:47:03;;;;;;;;;;;;;;;27.07;59.36;99574.94;5033521;28;19955;-81
2021/06/10 10:49:29;;;;;;;;;;;;;;;28.03;51.38;99566.03;5034231;28;21099;-81
2021/06/10 10:52:15;;;;;;;;;;;;;;;25.67;63.18;99576.66;5034733;28;20192;-80
2021/06/10 10:54:41;;;;;;;;;;;;;;;26.51;60.47;99565.00;5004236;28;20533;-80
2021/06/10 10:57:07;;;;;;;;;;;;;;;27.02;59.82;99560.44;5034881;28;19925;-80
2021/06/10 10:59:49;;;;;;;;;;;;;;;25.91;62.48;99559.75;5052728;28;20042;-81
2021/06/10 11:02:18;;;;;;;;;;;;;;;26.34;59.95;99558.56;5005878;28;20777;-80
2021/06/10 11:05:13;;;;;;;;;;;;;;;26.04;50.17;99554.19;5015863;28;20501;-84
2021/06/10 11:07:39;;;;;;;;;;;;;;;26.45;62.34;99549.69;5033881;28;19924;-80
2021/06/10 11:10:09;;;;;;;;;;;;;;;26.78;59.75;99547.69;5052326;28;19951;-80
2021/06/10 11:12:41;;;;;;;;;;;;;;;27.62;55.67;99533.72;5032296;28;19924;-81
2021/06/10 11:15:07;;;;;;;;;;;;;;;26.94;56.21;99536.50;5051416;28;20328;-80
2021/06/10 11:18:02;;;;;;;;;;;;;;;28.87;47.98;99533.94;5034076;28;20321;-80
2021/06/10 11:20:37;;;;;;;;;;;;;;;27.19;49.27;99537.75;5032219;28;19925;-81
2021/06/10 11:23:17;;;;;;;;;;;;;;;27.00;53.87;99534.13;5018534;28;19920;-81
2021/06/10 11:25:45;;;;;;;;;;;;;;;28.06;52.95;99529.50;5034345;28;19982;-80
2021/06/10 11:28:11;;;;;;;;;;;;;;;29.81;44.89;99521.81;5032460;28;20007;-80
2021/06/10 11:30:38;;;;;;;;;;;;;;;28.04;43.79;99525.34;5034934;28;20036;-80
2021/06/10 11:33:11;;;;;;;;;;;;;;;27.23;60.47;99520.63;5033089;28;19932;-80
2021/06/10 11:35:37;;;;;;;;;;;;;;;28.32;59.34;99518.19;5006417;28;19920;-80
2021/06/10 11:38:04;;;;;;;;;;;;;;;29.52;44.91;99520.31;5054260;28;19935;-81
2021/06/10 11:40:30;;;;;;;;;;;;;;;27.58;53.78;99519.97;5055699;28;19974;-81
2021/06/10 11:42:55;;;;;;;;;;;;;;;28.44;45.54;99521.44;5037914;28;20021;-84
2021/06/10 11:45:21;;;;;;;;;;;;;;;28.09;54.72;99517.78;5021079;28;19931;-89
2021/06/10 11:47:47;;;;;;;;;;;;;;;28.26;47.20;99506.41;5019716;28;19932;-81
2021/06/10 11:50:48;;;;;;;;;;;;;;;27.77;50.18;99513.75;5037832;28;19916;-81
2021/06/10 11:53:19;;;;;;;;;;;;;;;27.72;47.47;99506.25;5010815;28;19924;-84
2021/06/10 11:55:47;;;;;;;;;;;;;;;29.49;44.09;99507.38;5035642;28;19932;-83
2021/06/10 11:58:13;;;;;;;;;;;;;;;28.83;44.71;99505.25;5054697;28;19956;-83
2021/06/10 12:00:43;;;;;;;;;;;;;;;29.04;54.45;99505.75;5055433;28;20027;-83
2021/06/10 12:03:11;;;;;;;;;;;;;;;28.92;49.45;99499.00;5008086;28;19931;-83
2021/06/10 12:05:47;;;;;;;;;;;;;;;28.14;45.76;99502.28;5034724;28;20011;-84
2021/06/10 12:08:26;;;;;;;;;;;;;;;30.79;43.25;99500.72;5038442;28;19972;-84
2021/06/10 12:10:54;;;;;;;;;;;;;;;33.00;38.42;99498.00;5036757;28;20032;-84
2021/06/10 12:13:39;;;;;;;;;;;;;;;28.32;42.87;99497.81;5022086;28;19959;-82
2021/06/10 12:16:06;;;;;;;;;;;;;;;28.29;42.68;99502.59;5034057;28;20043;-86
2021/06/10 12:18:32;;;;;;;;;;;;;;;29.05;46.43;99488.81;5054093;28;19927;-82
2021/06/10 12:20:59;;;;;;;;;;;;;;;27.94;54.65;99486.53;5036544;28;19924;-82
2021/06/10 12:23:26;;;;;;;;;;;;;;;27.68;41.41;99486.34;5019922;28;19986;-81
2021/06/10 12:26:02;;;;;;;;;;;;;;;27.49;43.62;99492.56;5031625;28;19925;-80
2021/06/10 12:28:32;;;;;;;;;;;;;;;28.09;43.86;99489.50;5021575;28;19979;-81
2021/06/10 12:31:08;;;;;;;;;;;;;;;28.79;43.84;99488.81;5037332;28;19936;-81
2021/06/10 12:33:33;;;;;;;;;;;;;;;29.71;42.58;99483.91;5020175;28;20572;-82
2021/06/10 12:35:59;;;;;;;;;;;;;;;28.70;47.99;99489.75;5018564;28;19926;-82
2021/06/10 12:38:35;;;;;;;;;;;;;;;27.89;44.83;99496.72;5033280;28;20614;-81
2021/06/10 12:41:15;;;;;;;;;;;;;;;28.18;41.19;99481.63;5044548;28;20038;-83
2021/06/10 12:43:41;;;;;;;;;;;;;;;28.91;39.06;99486.75;5033744;28;19931;-83
2021/06/10 12:46:07;;;;;;;;;;;;;;;28.91;43.25;99482.28;5032251;28;20745;-82
2021/06/10 12:48:34;;;;;;;;;;;;;;;28.70;46.21;99479.97;5033696;28;19975;-90